Time;durP1;ratioP1;P1;durP2;ratioP2;P2;SDS_P1;SDS_P2;PMS_P1;PMS_P2;Temp;Humidity;BMP_temperature;BMP_pressure;BME280_temperature;BME280_humidity;BME280_pressure;Samples;Min_cycle;Max_cycle;Signal;HPM_P1;HPM_P2
2022/07/15 00:02:11;;;;;;;8.90;2.03;;;12.40;86.40;;;;;;4949725;28;20059;-90
2022/07/15 00:04:37;;;;;;;10.23;2.50;;;12.50;98.20;;;;;;4947426;28;20043;-90
2022/07/15 00:07:04;;;;;;;6.63;2.20;;;12.50;97.30;;;;;;4954650;28;20043;-90
2022/07/15 00:12:14;;;;;;;6.32;2.40;;;12.40;91.50;;;;;;4958358;28;20090;-89
2022/07/15 00:14:40;;;;;;;8.75;2.80;;;12.50;97.10;;;;;;4948323;28;20082;-90
2022/07/15 00:17:07;;;;;;;6.22;2.47;;;12.50;99.90;;;;;;4946050;28;20073;-92
2022/07/15 00:19:34;;;;;;;12.38;2.58;;;12.50;99.90;;;;;;4948315;28;20071;-91
2022/07/15 00:22:03;;;;;;;7.80;2.25;;;12.40;99.90;;;;;;4969385;28;20054;-90
2022/07/15 00:24:29;;;;;;;10.43;2.45;;;12.50;93.60;;;;;;4950945;28;20058;-91
2022/07/15 00:26:56;;;;;;;8.52;2.47;;;12.50;94.90;;;;;;4952560;28;20043;-90
2022/07/15 00:29:22;;;;;;;12.82;2.72;;;12.50;87.50;;;;;;4970770;28;20063;-90
2022/07/15 00:31:48;;;;;;;6.97;2.53;;;12.50;80.20;;;;;;4945991;28;20121;-90
2022/07/15 00:34:14;;;;;;;9.30;2.67;;;12.60;99.90;;;;;;4965995;28;20086;-90
2022/07/15 00:36:42;;;;;;;12.48;2.50;;;12.60;99.90;;;;;;4954498;28;20419;-90
2022/07/15 00:39:09;;;;;;;6.25;2.08;;;12.60;99.90;;;;;;4958800;28;20541;-91
2022/07/15 00:41:42;;;;;;;14.90;2.83;;;12.60;99.90;;;;;;4946574;28;20126;-90
2022/07/15 00:44:09;;;;;;;9.68;2.70;;;12.60;99.90;;;;;;4970349;28;20075;-90
2022/07/15 00:46:35;;;;;;;9.60;2.78;;;12.70;99.90;;;;;;4950607;28;20128;-90
2022/07/15 00:49:04;;;;;;;9.18;2.65;;;12.70;95.90;;;;;;4952493;28;20202;-90
2022/07/15 00:51:41;;;;;;;8.23;2.78;;;12.70;82.20;;;;;;4950972;28;20051;-90
2022/07/15 00:54:10;;;;;;;10.07;2.42;;;12.70;99.90;;;;;;4949153;28;20071;-91
2022/07/15 00:56:41;;;;;;;9.10;2.50;;;12.80;97.10;;;;;;4949880;28;20099;-90
2022/07/15 00:59:09;;;;;;;9.27;2.40;;;12.70;99.90;;;;;;4962921;28;20092;-89
2022/07/15 01:01:35;;;;;;;7.95;2.60;;;12.80;99.90;;;;;;4974472;28;20059;-90
2022/07/15 01:04:03;;;;;;;8.30;2.25;;;12.80;99.90;;;;;;4948540;28;20079;-91
2022/07/15 01:06:30;;;;;;;11.35;2.28;;;12.70;99.90;;;;;;4951180;28;20047;-89
2022/07/15 01:08:59;;;;;;;7.25;2.17;;;12.70;99.90;;;;;;4958912;28;20070;-90
2022/07/15 01:11:26;;;;;;;11.85;2.40;;;12.70;99.90;;;;;;4949147;28;20105;-90
2022/07/15 01:13:52;;;;;;;12.50;3.03;;;12.70;99.90;;;;;;4951036;28;20130;-91
2022/07/15 01:16:17;;;;;;;10.35;2.78;;;12.70;99.90;;;;;;4960283;28;20133;-89
2022/07/15 01:18:43;;;;;;;8.13;2.13;;;12.70;99.90;;;;;;4949467;28;20054;-90
2022/07/15 01:21:09;;;;;;;9.32;2.28;;;12.60;99.90;;;;;;4952063;28;20126;-90
2022/07/15 01:23:36;;;;;;;11.63;2.53;;;12.60;99.90;;;;;;4950493;28;20051;-89
2022/07/15 01:26:02;;;;;;;7.90;2.10;;;12.60;99.90;;;;;;4951882;28;20042;-90
2022/07/15 01:28:27;;;;;;;9.20;2.20;;;12.60;99.90;;;;;;4956572;28;20102;-90
2022/07/15 01:30:53;;;;;;;6.50;2.25;;;12.50;99.90;;;;;;4951342;28;20046;-90
2022/07/15 01:33:19;;;;;;;10.00;2.47;;;12.50;99.90;;;;;;4949732;28;20054;-89
2022/07/15 01:35:44;;;;;;;13.95;2.63;;;12.50;99.90;;;;;;4950900;28;20097;-91
2022/07/15 01:38:10;;;;;;;7.03;2.47;;;12.60;99.90;;;;;;4949557;28;20081;-90
2022/07/15 01:40:36;;;;;;;8.75;2.30;;;12.70;99.90;;;;;;4950266;28;20047;-90
2022/07/15 01:43:02;;;;;;;6.63;2.30;;;12.70;99.90;;;;;;4938463;28;20054;-90
2022/07/15 01:45:28;;;;;;;11.43;2.88;;;12.70;99.90;;;;;;4950506;28;20553;-89
2022/07/15 01:47:54;;;;;;;11.93;2.72;;;12.70;99.90;;;;;;4950672;28;20050;-89
2022/07/15 01:50:20;;;;;;;11.15;2.42;;;12.80;99.90;;;;;;4942853;28;20100;-90
2022/07/15 01:52:46;;;;;;;9.25;2.53;;;12.80;99.90;;;;;;4950182;28;20104;-89
2022/07/15 01:55:12;;;;;;;7.53;2.08;;;12.80;99.90;;;;;;4950135;28;20082;-90
2022/07/15 01:57:38;;;;;;;11.15;2.78;;;12.80;99.90;;;;;;4956634;28;20099;-90
2022/07/15 02:00:06;;;;;;;7.57;2.15;;;12.70;99.90;;;;;;4950683;28;20047;-91
2022/07/15 02:02:32;;;;;;;8.02;2.45;;;12.70;99.90;;;;;;4949812;28;20063;-89
2022/07/15 02:04:58;;;;;;;11.32;3.42;;;12.60;99.90;;;;;;4959431;28;20101;-90
2022/07/15 02:07:23;;;;;;;8.02;2.60;;;12.60;99.90;;;;;;4945498;28;20602;-89
2022/07/15 02:09:49;;;;;;;10.60;2.50;;;12.60;99.90;;;;;;4948656;28;20158;-91
2022/07/15 02:12:15;;;;;;;10.07;2.17;;;12.60;99.90;;;;;;4958732;28;20050;-90
2022/07/15 02:14:40;;;;;;;6.70;2.47;;;12.50;99.90;;;;;;4952080;28;20517;-90
2022/07/15 02:17:07;;;;;;;10.68;2.30;;;12.40;99.90;;;;;;4954800;28;20177;-89
2022/07/15 02:19:33;;;;;;;12.85;2.88;;;12.40;99.90;;;;;;4948595;28;20494;-90
2022/07/15 02:21:59;;;;;;;8.77;2.40;;;12.30;99.90;;;;;;4950048;28;20069;-90
2022/07/15 02:24:24;;;;;;;11.32;2.75;;;12.20;99.90;;;;;;4980296;28;20066;-90
2022/07/15 02:26:50;;;;;;;14.35;3.30;;;12.20;99.90;;;;;;4958269;28;20384;-90
2022/07/15 02:29:16;;;;;;;12.93;2.85;;;12.20;99.90;;;;;;4948812;28;20070;-90
2022/07/15 02:31:42;;;;;;;8.55;2.20;;;12.10;99.90;;;;;;4950252;28;20233;-89
2022/07/15 02:34:09;;;;;;;11.13;2.50;;;12.00;99.90;;;;;;4947809;28;20457;-90
2022/07/15 02:36:36;;;;;;;10.65;3.00;;;12.00;99.90;;;;;;4957077;28;20074;-90
2022/07/15 02:39:03;;;;;;;10.45;2.50;;;11.90;99.90;;;;;;4950628;28;20050;-89
2022/07/15 02:41:29;;;;;;;7.10;2.10;;;11.90;99.90;;;;;;4950110;28;20070;-91
2022/07/15 02:43:55;;;;;;;9.90;2.60;;;11.90;99.90;;;;;;4956581;28;20039;-90
2022/07/15 02:46:21;;;;;;;9.73;2.47;;;11.80;99.90;;;;;;4947518;28;20129;-90
2022/07/15 02:48:47;;;;;;;8.50;2.55;;;11.80;99.90;;;;;;4947525;28;20047;-90
2022/07/15 02:51:14;;;;;;;8.82;2.22;;;11.70;99.90;;;;;;4943689;28;20053;-90
2022/07/15 02:53:40;;;;;;;11.70;2.30;;;11.70;99.90;;;;;;4949379;28;20572;-91
2022/07/15 02:56:06;;;;;;;4.97;2.10;;;11.60;99.90;;;;;;4939539;28;20047;-90
2022/07/15 02:58:32;;;;;;;6.38;2.50;;;11.60;99.90;;;;;;4936842;28;20253;-91
2022/07/15 03:00:59;;;;;;;5.57;2.42;;;11.50;99.90;;;;;;4955791;28;20215;-91
2022/07/15 03:03:27;;;;;;;11.00;2.45;;;11.50;99.90;;;;;;4946893;28;20054;-90
2022/07/15 03:05:57;;;;;;;6.40;2.30;;;11.40;99.90;;;;;;4958066;28;20404;-91
2022/07/15 03:08:24;;;;;;;7.75;2.60;;;11.40;99.90;;;;;;4947543;28;20047;-90
2022/07/15 03:10:50;;;;;;;7.18;2.45;;;11.50;99.90;;;;;;4950128;28;20097;-91
2022/07/15 03:13:16;;;;;;;8.85;2.40;;;11.40;99.90;;;;;;4949529;28;20591;-90
2022/07/15 03:15:41;;;;;;;10.30;2.30;;;11.40;1.00;;;;;;4956458;28;20043;-90
2022/07/15 03:18:07;;;;;;;8.07;2.35;;;11.40;99.90;;;;;;4947411;28;20077;-90
2022/07/15 03:20:33;;;;;;;10.68;2.58;;;11.40;99.90;;;;;;4947248;28;20043;-90
2022/07/15 03:23:01;;;;;;;8.48;2.63;;;11.30;99.90;;;;;;4946262;28;20035;-89
2022/07/15 03:25:30;;;;;;;8.70;2.78;;;11.30;99.90;;;;;;4947721;28;20051;-89
2022/07/15 03:27:56;;;;;;;8.52;2.28;;;11.30;1.00;;;;;;4947417;28;20154;-90
2022/07/15 03:30:22;;;;;;;6.55;2.60;;;11.20;99.90;;;;;;4948247;28;20483;-91
2022/07/15 03:32:48;;;;;;;7.65;2.40;;;11.20;99.90;;;;;;4939602;28;20110;-89
2022/07/15 03:35:13;;;;;;;7.30;2.42;;;11.20;99.90;;;;;;4945846;28;20078;-90
2022/07/15 03:37:39;;;;;;;9.52;3.03;;;11.10;99.90;;;;;;4947544;28;20070;-90
2022/07/15 03:40:05;;;;;;;6.68;2.25;;;11.10;99.90;;;;;;4972007;28;20126;-90
2022/07/15 03:42:31;;;;;;;11.50;2.40;;;11.10;99.90;;;;;;4952640;28;20070;-90
2022/07/15 03:44:59;;;;;;;11.25;2.30;;;11.20;99.90;;;;;;4946578;28;20093;-90
2022/07/15 03:47:26;;;;;;;8.18;2.17;;;11.20;99.90;;;;;;4942148;28;20280;-90
2022/07/15 03:49:52;;;;;;;6.90;2.10;;;11.20;99.90;;;;;;4946976;28;20113;-91
2022/07/15 03:52:17;;;;;;;9.05;2.42;;;11.30;99.90;;;;;;4939981;28;20364;-91
2022/07/15 03:54:43;;;;;;;9.15;2.38;;;11.30;99.90;;;;;;4948820;28;20045;-90
2022/07/15 03:57:09;;;;;;;9.10;2.63;;;11.40;99.90;;;;;;4947142;28;20043;-89
2022/07/15 03:59:34;;;;;;;6.43;2.65;;;11.40;99.90;;;;;;4961485;28;20043;-89
2022/07/15 04:02:00;;;;;;;5.85;2.20;;;11.50;99.90;;;;;;4956390;28;20051;-90
2022/07/15 04:04:26;;;;;;;7.95;2.22;;;11.50;99.90;;;;;;4952428;28;20114;-90
2022/07/15 04:06:52;;;;;;;6.40;1.90;;;11.60;99.90;;;;;;4932557;28;20071;-90
2022/07/15 04:09:18;;;;;;;9.63;2.30;;;11.60;99.90;;;;;;4956349;28;20045;-91
2022/07/15 04:11:43;;;;;;;8.13;2.17;;;11.60;99.90;;;;;;4954626;28;20445;-91
2022/07/15 04:14:13;;;;;;;6.82;2.00;;;11.70;99.90;;;;;;4946559;28;20047;-89
2022/07/15 04:16:42;;;;;;;6.90;2.22;;;11.70;99.90;;;;;;4948748;28;20050;-89
2022/07/15 04:19:08;;;;;;;8.00;2.10;;;11.80;99.90;;;;;;4953153;28;20051;-90
2022/07/15 04:21:33;;;;;;;7.18;2.10;;;11.90;99.90;;;;;;4940186;28;20310;-90
2022/07/15 04:24:00;;;;;;;8.48;2.22;;;11.90;99.90;;;;;;4952197;28;20102;-90
2022/07/15 04:26:25;;;;;;;5.50;1.75;;;12.00;99.90;;;;;;4951842;28;20137;-89
2022/07/15 04:28:51;;;;;;;4.97;1.88;;;12.00;99.90;;;;;;4951648;28;20424;-89
2022/07/15 04:31:18;;;;;;;5.47;1.90;;;12.10;99.90;;;;;;4950845;28;20054;-90
2022/07/15 04:33:47;;;;;;;3.88;2.00;;;12.10;99.90;;;;;;4964591;28;20396;-89
2022/07/15 04:36:12;;;;;;;7.95;1.70;;;12.20;99.90;;;;;;4950776;28;20051;-89
2022/07/15 04:38:38;;;;;;;4.43;1.73;;;12.30;99.90;;;;;;4951041;28;20043;-89
2022/07/15 04:41:04;;;;;;;4.65;1.70;;;12.30;99.90;;;;;;4950831;28;20079;-90
2022/07/15 04:43:30;;;;;;;3.90;1.50;;;12.40;99.90;;;;;;4952220;28;20465;-90
2022/07/15 04:45:55;;;;;;;4.07;1.70;;;12.40;99.90;;;;;;4951570;28;20046;-90
2022/07/15 04:51:08;;;;;;;6.72;1.70;;;12.60;99.90;;;;;;4957370;28;20232;-90
2022/07/15 04:53:34;;;;;;;8.40;1.67;;;12.70;99.90;;;;;;4947648;29;20053;-90
2022/07/15 04:56:00;;;;;;;6.90;1.35;;;12.80;99.90;;;;;;4951543;28;20045;-90
2022/07/15 04:58:25;;;;;;;5.43;1.85;;;12.80;99.90;;;;;;4948921;28;20135;-91
2022/07/15 05:00:51;;;;;;;4.88;1.27;;;12.90;93.10;;;;;;4948237;28;20067;-89
2022/07/15 05:03:17;;;;;;;4.97;1.50;;;12.90;69.30;;;;;;4943288;28;20050;-89
2022/07/15 05:05:43;;;;;;;4.70;1.50;;;13.00;91.50;;;;;;4948155;29;20058;-89
2022/07/15 05:08:08;;;;;;;6.53;1.58;;;13.00;42.10;;;;;;4949030;28;20068;-89
2022/07/15 05:10:34;;;;;;;5.20;1.45;;;13.00;99.90;;;;;;4970113;28;20047;-91
2022/07/15 05:13:02;;;;;;;3.50;1.55;;;13.10;99.90;;;;;;4964899;28;20082;-90
2022/07/15 05:15:27;;;;;;;5.20;1.20;;;13.10;99.90;;;;;;4956590;28;20043;-90
2022/07/15 05:17:53;;;;;;;3.67;1.55;;;13.10;99.90;;;;;;4948561;28;20416;-88
2022/07/15 05:20:19;;;;;;;4.93;1.42;;;13.10;99.90;;;;;;4933914;28;20049;-89
2022/07/15 05:22:45;;;;;;;8.15;1.98;;;13.20;99.90;;;;;;4949624;28;20083;-89
2022/07/15 05:25:14;;;;;;;3.85;1.10;;;13.20;93.60;;;;;;4943250;28;20047;-89
2022/07/15 05:27:40;;;;;;;3.75;1.20;;;13.20;99.90;;;;;;4950807;28;20445;-89
2022/07/15 05:30:08;;;;;;;3.83;1.30;;;13.20;96.20;;;;;;4949297;28;20082;-89
2022/07/15 05:32:33;;;;;;;8.30;1.50;;;13.20;81.50;;;;;;4953644;28;20119;-89
2022/07/15 05:34:59;;;;;;;4.00;1.13;;;13.30;99.90;;;;;;4949720;28;20051;-90
2022/07/15 05:37:25;;;;;;;3.22;1.15;;;13.30;99.90;;;;;;4949700;28;20074;-90
2022/07/15 05:39:53;;;;;;;2.55;0.95;;;13.40;99.90;;;;;;4938865;28;20122;-89
2022/07/15 05:42:20;;;;;;;3.78;1.20;;;13.50;63.50;;;;;;4948346;29;20043;-90
2022/07/15 05:44:49;;;;;;;4.30;1.20;;;13.60;26.30;;;;;;4963787;28;20122;-90
2022/07/15 05:47:15;;;;;;;3.70;1.05;;;13.70;30.30;;;;;;4949830;28;20051;-90
2022/07/15 05:49:41;;;;;;;5.60;1.23;;;13.90;1.00;;;;;;4950204;28;20141;-90
2022/07/15 05:52:08;;;;;;;3.00;1.10;;;14.10;1.00;;;;;;4964969;28;20138;-89
2022/07/15 05:54:34;;;;;;;3.75;1.30;;;14.30;1.00;;;;;;4949070;28;20059;-90
2022/07/15 05:56:59;;;;;;;3.33;1.00;;;14.40;1.00;;;;;;4947960;28;20064;-89
2022/07/15 05:59:25;;;;;;;4.30;1.30;;;14.50;99.90;;;;;;4948749;28;20166;-89
2022/07/15 06:01:50;;;;;;;4.38;1.20;;;14.50;1.00;;;;;;4959612;28;20051;-89
2022/07/15 06:04:16;;;;;;;3.40;0.90;;;14.60;1.00;;;;;;4941759;28;20118;-89
2022/07/15 06:06:42;;;;;;;4.68;1.10;;;14.60;1.00;;;;;;4948463;28;20047;-90
2022/07/15 06:09:09;;;;;;;6.03;1.50;;;14.60;99.90;;;;;;4949777;28;20525;-89
2022/07/15 06:11:34;;;;;;;4.40;1.08;;;14.80;1.00;;;;;;4956345;28;20078;-91
2022/07/15 06:14:01;;;;;;;2.35;1.13;;;14.80;99.90;;;;;;4946693;29;20508;-87
2022/07/15 06:16:26;;;;;;;2.67;1.05;;;15.00;99.90;;;;;;4934294;28;20062;-90
2022/07/15 06:18:54;;;;;;;2.47;0.95;;;15.00;99.90;;;;;;4948488;28;20085;-89
2022/07/15 06:21:20;;;;;;;3.30;1.00;;;15.20;99.90;;;;;;4954654;28;20213;-89
2022/07/15 06:23:46;;;;;;;5.90;0.93;;;15.10;99.90;;;;;;4947209;28;20206;-89
2022/07/15 06:26:11;;;;;;;3.63;1.00;;;15.20;99.90;;;;;;4949267;28;20043;-90
2022/07/15 06:28:37;;;;;;;5.50;1.10;;;15.30;99.90;;;;;;4949559;28;20062;-90
2022/07/15 06:31:03;;;;;;;4.15;0.77;;;15.20;99.90;;;;;;4948466;28;20089;-90
2022/07/15 06:33:28;;;;;;;2.80;0.90;;;15.30;99.90;;;;;;4948275;28;20138;-89
2022/07/15 06:35:54;;;;;;;1.77;0.75;;;15.30;99.90;;;;;;4949282;28;20090;-89
2022/07/15 06:38:21;;;;;;;3.95;1.20;;;15.30;99.90;;;;;;4959426;28;20057;-89
2022/07/15 06:40:46;;;;;;;3.17;1.10;;;15.30;99.90;;;;;;4948444;28;20074;-90
2022/07/15 06:43:13;;;;;;;6.82;1.42;;;15.30;99.90;;;;;;4948671;28;20547;-90
2022/07/15 06:45:38;;;;;;;3.50;1.10;;;15.40;99.90;;;;;;4945181;29;20620;-90
2022/07/15 06:48:04;;;;;;;4.00;1.05;;;15.40;99.90;;;;;;4948477;28;20039;-89
2022/07/15 06:50:30;;;;;;;4.70;0.98;;;15.60;99.90;;;;;;4947421;28;20051;-90
2022/07/15 06:52:59;;;;;;;3.40;0.90;;;16.10;99.90;;;;;;4958162;28;20054;-88
2022/07/15 06:55:25;;;;;;;6.78;0.73;;;16.20;99.90;;;;;;4956303;28;20083;-92
2022/07/15 06:57:51;;;;;;;6.57;1.10;;;16.00;99.90;;;;;;4948063;28;20468;-89
2022/07/15 07:00:20;;;;;;;3.17;0.90;;;16.10;99.90;;;;;;4952741;28;20489;-90
2022/07/15 07:02:46;;;;;;;3.30;0.80;;;16.30;99.90;;;;;;4947422;28;20054;-88
2022/07/15 07:05:12;;;;;;;3.10;0.85;;;16.50;99.90;;;;;;4958135;28;20503;-89
2022/07/15 07:07:38;;;;;;;3.03;0.68;;;16.50;99.90;;;;;;4947698;28;20039;-90
2022/07/15 07:10:04;;;;;;;4.95;1.17;;;16.30;99.90;;;;;;4952178;28;20039;-90
2022/07/15 07:12:30;;;;;;;3.00;0.88;;;16.00;99.90;;;;;;4947306;28;20083;-89
2022/07/15 07:14:56;;;;;;;3.00;0.85;;;16.00;99.90;;;;;;4945749;28;20073;-89
2022/07/15 07:17:22;;;;;;;2.00;0.73;;;16.20;99.90;;;;;;4944980;29;20380;-82
2022/07/15 07:19:48;;;;;;;5.57;0.90;;;16.60;99.90;;;;;;4945470;28;20054;-82
2022/07/15 07:22:14;;;;;;;4.95;0.90;;;17.00;99.90;;;;;;4945713;28;20386;-82
2022/07/15 07:24:42;;;;;;;6.40;1.00;;;17.40;99.90;;;;;;4945319;28;20534;-83
2022/07/15 07:27:08;;;;;;;2.72;0.88;;;17.40;28.30;;;;;;4944534;28;20420;-82
2022/07/15 07:29:36;;;;;;;2.97;0.80;;;17.10;72.80;;;;;;4946331;28;20047;-83
2022/07/15 07:32:02;;;;;;;4.95;0.90;;;17.10;2.80;;;;;;4968248;28;20216;-82
2022/07/15 07:34:28;;;;;;;2.55;0.60;;;17.30;1.00;;;;;;4929974;28;20085;-82
2022/07/15 07:36:54;;;;;;;3.08;0.60;;;17.60;1.00;;;;;;4949992;28;20047;-83
2022/07/15 07:39:20;;;;;;;3.00;0.90;;;17.90;1.00;;;;;;4972289;28;20041;-83
2022/07/15 07:41:46;;;;;;;3.63;0.82;;;18.00;1.00;;;;;;4962066;28;20046;-82
2022/07/15 07:44:11;;;;;;;3.60;0.50;;;18.10;1.00;;;;;;4945763;28;20043;-83
2022/07/15 07:46:37;;;;;;;2.30;0.65;;;17.60;1.00;;;;;;4945280;28;20055;-82
2022/07/15 07:49:03;;;;;;;2.17;1.00;;;17.50;1.00;;;;;;4947459;28;20058;-83
2022/07/15 07:51:29;;;;;;;3.03;0.95;;;17.70;1.00;;;;;;4931553;28;20043;-82
2022/07/15 07:53:56;;;;;;;3.30;0.80;;;17.60;1.00;;;;;;4945798;28;20105;-82
2022/07/15 07:56:24;;;;;;;3.50;0.80;;;17.40;1.00;;;;;;4944867;28;20043;-83
2022/07/15 07:58:51;;;;;;;4.75;0.63;;;17.40;1.00;;;;;;4961498;28;20062;-83
2022/07/15 08:01:19;;;;;;;4.30;1.15;;;17.50;1.00;;;;;;4944939;28;20143;-83
2022/07/15 08:03:47;;;;;;;4.63;0.60;;;17.60;1.00;;;;;;4950829;28;20047;-83
2022/07/15 08:06:13;;;;;;;1.77;0.50;;;17.60;1.00;;;;;;4961812;28;20091;-83
2022/07/15 08:08:39;;;;;;;1.10;0.55;;;17.50;1.00;;;;;;4944790;28;20412;-83
2022/07/15 08:11:05;;;;;;;2.22;0.52;;;17.30;1.00;;;;;;4946173;28;20055;-83
2022/07/15 08:13:30;;;;;;;2.83;0.65;;;17.10;1.00;;;;;;4945524;28;20043;-83
2022/07/15 08:15:59;;;;;;;3.70;0.63;;;17.10;1.00;;;;;;4945925;28;20499;-83
2022/07/15 08:18:25;;;;;;;2.42;0.60;;;17.20;1.00;;;;;;4937192;28;20097;-82
2022/07/15 08:20:51;;;;;;;2.70;0.60;;;17.30;1.00;;;;;;4947092;28;20045;-83
2022/07/15 08:23:20;;;;;;;3.50;0.63;;;17.30;1.00;;;;;;4947264;28;20040;-82
2022/07/15 08:25:48;;;;;;;4.13;0.50;;;17.50;1.00;;;;;;4945888;28;20517;-83
2022/07/15 08:28:14;;;;;;;2.90;0.77;;;17.50;1.00;;;;;;4946623;28;20042;-83
2022/07/15 08:30:40;;;;;;;2.22;0.57;;;17.60;1.00;;;;;;4946297;28;20642;-83
2022/07/15 08:33:06;;;;;;;5.50;0.70;;;17.70;1.00;;;;;;4944642;28;20059;-82
2022/07/15 08:35:32;;;;;;;2.55;0.70;;;17.90;1.00;;;;;;4946882;28;20045;-83
2022/07/15 08:37:58;;;;;;;2.95;0.73;;;17.90;1.00;;;;;;4961174;28;20097;-83
2022/07/15 08:40:26;;;;;;;1.00;0.50;;;17.90;1.00;;;;;;4973982;28;20308;-82
2022/07/15 08:42:51;;;;;;;1.85;0.40;;;18.00;1.00;;;;;;4957036;28;20054;-83
2022/07/15 08:45:17;;;;;;;4.25;0.60;;;18.10;1.00;;;;;;4948343;28;20128;-82
2022/07/15 08:47:48;;;;;;;2.55;0.50;;;17.80;1.00;;;;;;4974638;28;20341;-83
2022/07/15 08:50:19;;;;;;;2.45;0.55;;;18.00;1.00;;;;;;4952926;28;20343;-82
2022/07/15 08:52:46;;;;;;;3.72;0.70;;;17.80;1.00;;;;;;4946327;28;21055;-82
2022/07/15 08:55:13;;;;;;;2.97;0.40;;;17.80;1.00;;;;;;4944717;28;20392;-82
2022/07/15 08:57:39;;;;;;;1.90;0.60;;;17.80;1.00;;;;;;4956001;28;20039;-82
2022/07/15 09:00:09;;;;;;;2.83;0.40;;;17.90;1.00;;;;;;4944722;28;20046;-82
2022/07/15 09:02:37;;;;;;;0.82;0.40;;;18.20;1.00;;;;;;4946330;28;20110;-82
2022/07/15 09:05:21;;;;;;;1.33;0.32;;;18.30;1.00;;;;;;4953480;28;20109;-82
2022/07/15 09:07:59;;;;;;;2.88;0.60;;;18.80;1.00;;;;;;4942810;28;20133;-83
2022/07/15 09:10:43;;;;;;;1.90;0.50;;;19.00;1.00;;;;;;4961693;28;20459;-83
2022/07/15 09:13:22;;;;;;;6.57;0.50;;;18.50;99.90;;;;;;4939612;28;20142;-83
2022/07/15 09:15:49;;;;;;;24.10;2.58;;;18.40;99.90;;;;;;4951415;28;20054;-82
2022/07/15 09:18:17;;;;;;;1.40;0.60;;;18.40;99.90;;;;;;4964555;28;20053;-83
2022/07/15 09:20:44;;;;;;;0.45;0.38;;;18.40;99.90;;;;;;4948540;28;20077;-83
2022/07/15 09:23:11;;;;;;;3.22;0.68;;;18.30;99.90;;;;;;4947393;28;20042;-83
2022/07/15 09:25:38;;;;;;;2.72;0.60;;;18.30;99.90;;;;;;4950060;28;20047;-83
2022/07/15 09:28:07;;;;;;;1.45;0.30;;;18.30;99.90;;;;;;4944740;28;20138;-83
2022/07/15 09:36:29;;;;;;;3.22;0.60;;;18.10;99.90;;;;;;4958388;28;20047;-83
2022/07/15 09:39:00;;;;;;;1.08;0.50;;;18.20;99.90;;;;;;4942750;28;20047;-82
2022/07/15 09:41:26;;;;;;;1.35;0.43;;;18.30;99.90;;;;;;4948346;28;20078;-83
2022/07/15 09:44:05;;;;;;;2.15;0.68;;;18.20;99.90;;;;;;4935408;28;20078;-83
2022/07/15 09:46:59;;;;;;;2.33;0.40;;;18.30;99.90;;;;;;4954366;28;20150;-82
2022/07/15 09:49:25;;;;;;;1.60;0.50;;;18.70;99.90;;;;;;4950766;28;20634;-83
2022/07/15 09:51:57;;;;;;;1.48;0.35;;;18.80;99.90;;;;;;4935190;28;20190;-83
2022/07/15 09:54:30;;;;;;;1.73;0.47;;;19.20;99.90;;;;;;4958083;28;20043;-83
2022/07/15 09:56:57;;;;;;;2.90;0.80;;;19.90;99.90;;;;;;4958828;28;20443;-83
2022/07/15 09:59:25;;;;;;;2.78;0.63;;;20.30;99.90;;;;;;4952384;28;20171;-83
2022/07/15 10:01:50;;;;;;;2.22;0.70;;;19.80;99.90;;;;;;4955525;28;20172;-83
2022/07/15 10:04:19;;;;;;;2.72;0.52;;;20.40;99.90;;;;;;4946162;28;20051;-83
2022/07/15 10:06:47;;;;;;;3.00;0.50;;;19.80;99.90;;;;;;4956846;28;20042;-83
2022/07/15 10:09:13;;;;;;;0.63;0.40;;;19.40;99.90;;;;;;4948026;28;20145;-83
2022/07/15 10:11:46;;;;;;;1.73;0.50;;;19.70;99.90;;;;;;4961312;28;20054;-83
2022/07/15 10:14:30;;;;;;;1.42;0.50;;;19.50;99.90;;;;;;4963540;28;20047;-84
2022/07/15 10:17:14;;;;;;;1.05;0.45;;;19.90;99.90;;;;;;4945832;29;20047;-83
2022/07/15 10:19:50;;;;;;;4.18;0.60;;;20.00;99.90;;;;;;4953405;28;20342;-83
2022/07/15 10:22:42;;;;;;;2.70;0.60;;;19.80;99.90;;;;;;4932227;28;20050;-82
2022/07/15 10:25:17;;;;;;;0.95;0.50;;;20.10;99.90;;;;;;4950931;28;20070;-83
2022/07/15 10:28:03;;;;;;;3.45;0.82;;;20.70;99.90;;;;;;4934945;28;20062;-83
2022/07/15 10:30:29;;;;;;;3.35;0.60;;;21.30;99.90;;;;;;4959542;28;20082;-83
2022/07/15 10:33:04;;;;;;;1.83;0.60;;;21.30;99.90;;;;;;4946589;28;20075;-83
2022/07/15 10:35:42;;;;;;;2.90;0.57;;;20.60;99.90;;;;;;4949794;28;20039;-83
2022/07/15 10:38:30;;;;;;;2.00;0.40;;;20.10;99.90;;;;;;4963362;28;20043;-83
2022/07/15 10:41:06;;;;;;;2.83;0.63;;;20.00;99.90;;;;;;4956108;28;20126;-83
2022/07/15 10:43:55;;;;;;;1.90;0.60;;;20.00;99.90;;;;;;4937251;29;20050;-83
2022/07/15 10:46:24;;;;;;;1.95;0.50;;;19.80;99.90;;;;;;4931966;28;20058;-83
2022/07/15 10:48:58;;;;;;;1.02;0.57;;;19.70;99.90;;;;;;4946510;28;20097;-83
2022/07/15 10:51:40;;;;;;;1.50;0.57;;;19.60;99.90;;;;;;4934609;28;20340;-83
2022/07/15 10:54:18;;;;;;;2.45;0.63;;;19.20;99.90;;;;;;4932353;28;20392;-83
2022/07/15 10:56:53;;;;;;;3.97;0.80;;;19.30;99.90;;;;;;4937336;28;20047;-83
2022/07/15 10:59:19;;;;;;;;;;;19.40;99.90;;;;;;4934209;28;20407;-83
2022/07/15 11:02:05;;;;;;;1.50;0.47;;;19.70;99.90;;;;;;4953477;28;20003;-83
2022/07/15 11:04:32;;;;;;;2.72;0.60;;;20.10;99.90;;;;;;4948822;28;20054;-83
2022/07/15 11:07:10;;;;;;;1.45;0.50;;;20.20;99.90;;;;;;4934036;28;20073;-83
2022/07/15 11:09:57;;;;;;;1.05;0.40;;;20.40;99.90;;;;;;4960788;28;20042;-83
2022/07/15 11:12:48;;;;;;;2.35;0.70;;;20.50;99.90;;;;;;4953212;28;20047;-83
2022/07/15 11:15:24;;;;;;;1.55;0.50;;;20.50;99.90;;;;;;4931531;28;20505;-83
2022/07/15 11:17:52;;;;;;;1.80;0.40;;;20.80;99.90;;;;;;4947417;28;20170;-83
2022/07/15 11:20:23;;;;;;;1.52;0.45;;;20.10;99.90;;;;;;4953168;28;20156;-82
2022/07/15 11:22:55;;;;;;;2.28;0.47;;;20.20;99.90;;;;;;4952527;28;20039;-84
2022/07/15 11:25:33;;;;;;;2.92;0.40;;;20.10;99.90;;;;;;4946705;28;20055;-83
2022/07/15 11:28:05;;;;;;;1.67;0.55;;;20.30;99.90;;;;;;4952046;28;20506;-83
2022/07/15 11:30:43;;;;;;;2.15;0.70;;;20.30;99.90;;;;;;4934029;28;20104;-83
2022/07/15 11:33:14;;;;;;;2.95;0.63;;;20.50;99.90;;;;;;4962325;28;20046;-83
2022/07/15 11:35:43;;;;;;;1.35;0.52;;;20.30;99.90;;;;;;4967419;28;20494;-83
2022/07/15 11:38:09;;;;;;;1.63;0.50;;;20.00;99.90;;;;;;4940540;28;20050;-83
2022/07/15 11:46:05;;;;;;;1.80;0.60;;;20.10;99.90;;;;;;4952638;28;20322;-83
2022/07/15 11:48:38;;;;;;;1.58;0.50;;;20.10;99.90;;;;;;4944706;28;20137;-83
2022/07/15 11:51:09;;;;;;;1.85;0.55;;;20.30;99.90;;;;;;4943679;28;20047;-83
2022/07/15 11:53:41;;;;;;;1.70;0.50;;;20.10;99.90;;;;;;4939083;28;20051;-83
2022/07/15 11:56:09;;;;;;;1.95;0.65;;;19.80;99.90;;;;;;4951824;28;20043;-83
2022/07/15 11:58:53;;;;;;;2.00;0.60;;;19.90;99.90;;;;;;4946477;28;20340;-83
2022/07/15 12:01:28;;;;;;;1.85;0.60;;;20.10;99.90;;;;;;4936941;28;20128;-83
2022/07/15 12:03:56;;;;;;;1.88;0.68;;;20.30;99.90;;;;;;4943450;28;20119;-84
2022/07/15 12:06:23;;;;;;;2.80;0.30;;;20.50;99.90;;;;;;4948831;28;20043;-83
2022/07/15 12:08:54;;;;;;;1.20;0.50;;;20.30;99.90;;;;;;4968529;28;20074;-83
2022/07/15 12:11:28;;;;;;;2.05;0.40;;;20.10;99.90;;;;;;4934117;28;20051;-83
2022/07/15 12:14:02;;;;;;;2.42;0.70;;;20.10;99.90;;;;;;4949083;28;20092;-83
2022/07/15 12:16:32;;;;;;;1.17;0.63;;;20.10;99.90;;;;;;4938281;28;20093;-83
2022/07/15 12:19:01;;;;;;;1.77;0.50;;;20.10;99.90;;;;;;4944050;28;20282;-83
2022/07/15 12:21:30;;;;;;;1.33;0.50;;;20.30;99.90;;;;;;4956839;28;20068;-83
2022/07/15 12:24:02;;;;;;;2.78;0.60;;;20.50;99.90;;;;;;4945185;28;20043;-83
2022/07/15 12:26:28;;;;;;;2.97;0.57;;;20.20;99.90;;;;;;4958627;28;20570;-83
2022/07/15 12:29:01;;;;;;;2.13;0.60;;;20.00;99.90;;;;;;4946900;28;20062;-84
2022/07/15 12:31:32;;;;;;;1.27;0.47;;;20.10;99.90;;;;;;4960367;28;20039;-83
2022/07/15 12:33:59;;;;;;;2.88;0.30;;;20.00;99.90;;;;;;4944288;28;20051;-83
2022/07/15 12:36:32;;;;;;;2.10;0.55;;;19.90;99.90;;;;;;4944445;28;20106;-83
2022/07/15 12:39:28;;;;;;;1.92;0.80;;;19.80;99.90;;;;;;4937616;28;20153;-83
2022/07/15 12:42:04;;;;;;;0.73;0.50;;;19.90;99.90;;;;;;4930556;28;20093;-83
2022/07/15 12:44:31;;;;;;;1.90;0.63;;;20.20;99.90;;;;;;4950208;28;20035;-83
2022/07/15 12:47:04;;;;;;;1.23;0.50;;;20.50;99.90;;;;;;4948771;28;20050;-83
2022/07/15 12:49:55;;;;;;;2.70;0.70;;;20.40;99.90;;;;;;4949063;28;20034;-83
2022/07/15 12:52:30;;;;;;;4.30;0.68;;;20.40;99.90;;;;;;4958185;28;20499;-84
2022/07/15 12:54:57;;;;;;;3.17;0.75;;;19.80;99.90;;;;;;4953673;28;20055;-83
2022/07/15 12:57:34;;;;;;;1.42;0.60;;;19.80;99.90;;;;;;4954877;28;20045;-84
2022/07/15 13:00:22;;;;;;;2.38;0.80;;;19.60;99.90;;;;;;4946423;28;20113;-83
2022/07/15 13:03:10;;;;;;;3.50;0.90;;;19.50;99.90;;;;;;4958789;28;20061;-83
2022/07/15 13:05:41;;;;;;;1.65;0.70;;;19.30;99.90;;;;;;4975297;28;20043;-83
2022/07/15 13:08:09;;;;;;;1.33;0.70;;;19.10;99.90;;;;;;4947039;29;20061;-83
2022/07/15 13:10:36;;;;;;;2.35;0.75;;;19.00;99.90;;;;;;4961395;28;20050;-83
2022/07/15 13:13:03;;;;;;;1.30;0.63;;;19.10;99.90;;;;;;4972136;28;20047;-83